createdAt,value
2023-10-03T00:00:58.960Z,100391.53
2023-10-03T00:03:28.584Z,100383.66
2023-10-03T00:05:58.811Z,100384.66
2023-10-03T00:08:28.576Z,100380.56
2023-10-03T00:10:58.400Z,100385.59
2023-10-03T00:13:27.104Z,100383.66
2023-10-03T00:15:55.781Z,100377.22
2023-10-03T00:18:25.205Z,100385.38
2023-10-03T00:20:54.015Z,100382.25
2023-10-03T00:23:25.300Z,100382.44
2023-10-03T00:25:55.372Z,100376.66
2023-10-03T00:28:24.104Z,100376.00
2023-10-03T00:30:52.850Z,100370.09
2023-10-03T00:33:26.288Z,100368.97
2023-10-03T00:35:55.179Z,100365.06
2023-10-03T00:38:25.590Z,100356.09
2023-10-03T00:40:56.955Z,100359.41
2023-10-03T00:43:26.928Z,100353.03
2023-10-03T00:45:55.845Z,100344.75
2023-10-03T00:48:25.084Z,100343.94
2023-10-03T00:50:56.817Z,100345.37
2023-10-03T00:53:27.223Z,100350.00
2023-10-03T00:56:00.430Z,100339.84
2023-10-03T00:58:33.708Z,100342.50
2023-10-03T01:01:04.609Z,100340.81
2023-10-03T01:03:38.471Z,100336.47
2023-10-03T01:06:10.242Z,100341.66
2023-10-03T01:08:42.481Z,100335.53
2023-10-03T01:11:17.437Z,100333.44
2023-10-03T01:13:48.712Z,100330.56
2023-10-03T01:16:26.567Z,100331.53
2023-10-03T01:19:00.328Z,100327.63
2023-10-03T01:21:30.046Z,100318.19
2023-10-03T01:24:00.553Z,100323.56
2023-10-03T01:26:29.587Z,100321.97
2023-10-03T01:28:58.597Z,100320.47
2023-10-03T01:31:28.320Z,100318.94
2023-10-03T01:33:57.282Z,100317.63
2023-10-03T01:36:30.501Z,100326.44
2023-10-03T01:39:01.134Z,100319.25
2023-10-03T01:41:29.908Z,100321.53
2023-10-03T01:43:59.181Z,100315.75
2023-10-03T01:46:28.127Z,100313.16
2023-10-03T01:48:58.190Z,100309.38
2023-10-03T01:51:28.064Z,100308.69
2023-10-03T01:53:58.348Z,100313.25
2023-10-03T01:56:32.450Z,100307.06
2023-10-03T01:59:02.257Z,100310.16
2023-10-03T02:01:31.522Z,100308.69
2023-10-03T02:04:00.846Z,100304.59
2023-10-03T02:06:31.013Z,100306.13
2023-10-03T02:09:01.274Z,100308.13
2023-10-03T02:11:33.431Z,100295.06
2023-10-03T02:14:07.725Z,100296.09
2023-10-03T02:16:42.555Z,100295.53
2023-10-03T02:19:12.290Z,100299.44
2023-10-03T02:21:43.879Z,100291.69
2023-10-03T02:24:14.305Z,100290.91
2023-10-03T02:26:46.594Z,100293.16
2023-10-03T02:29:15.434Z,100285.50
2023-10-03T02:31:45.850Z,100274.94
2023-10-03T02:34:16.659Z,100278.00
2023-10-03T02:36:49.704Z,100283.78
2023-10-03T02:39:26.122Z,100277.91
2023-10-03T02:41:56.750Z,100280.31
2023-10-03T02:44:28.314Z,100274.97
2023-10-03T02:46:59.438Z,100276.72
2023-10-03T02:49:28.852Z,100277.09
2023-10-03T02:52:01.097Z,100278.16
2023-10-03T02:54:33.562Z,100270.69
2023-10-03T02:57:03.826Z,100275.88
2023-10-03T02:59:32.476Z,100277.91
2023-10-03T03:02:01.289Z,100275.28
2023-10-03T03:04:30.951Z,100278.81
2023-10-03T03:07:05.534Z,100276.78
2023-10-03T03:09:37.592Z,100271.13
2023-10-03T03:12:08.652Z,100261.03
2023-10-03T03:14:38.254Z,100263.97
2023-10-03T03:17:14.931Z,100267.69
2023-10-03T03:19:46.138Z,100261.66
2023-10-03T03:22:17.677Z,100263.13
2023-10-03T03:24:52.903Z,100260.81
2023-10-03T03:27:27.405Z,100266.03
2023-10-03T03:30:24.197Z,100253.78
2023-10-03T03:32:52.903Z,100256.09
2023-10-03T03:35:25.779Z,100255.38
2023-10-03T03:37:57.337Z,100257.47
2023-10-03T03:40:33.052Z,100257.44
2023-10-03T03:43:04.940Z,100258.66
2023-10-03T03:45:33.992Z,100255.72
2023-10-03T03:48:02.920Z,100254.75
2023-10-03T03:50:35.458Z,100242.72
2023-10-03T03:53:05.282Z,100244.59
2023-10-03T03:55:35.282Z,100250.53
2023-10-03T03:58:08.849Z,100253.06
2023-10-03T04:00:39.933Z,100250.34
2023-10-03T04:03:10.452Z,100252.25
2023-10-03T04:05:40.639Z,100246.09
2023-10-03T04:08:09.822Z,100239.78
2023-10-03T04:10:38.630Z,100239.53
2023-10-03T04:13:11.565Z,100241.97
2023-10-03T04:15:41.953Z,100236.25
2023-10-03T04:18:11.116Z,100236.25
2023-10-03T04:20:42.447Z,100239.34
2023-10-03T04:23:12.498Z,100235.47
2023-10-03T04:25:41.528Z,100233.47
2023-10-03T04:28:12.930Z,100238.72
2023-10-03T04:30:42.588Z,100240.63
2023-10-03T04:33:12.666Z,100243.09
2023-10-03T04:35:42.937Z,100235.59
2023-10-03T04:38:15.836Z,100239.66
2023-10-03T04:40:46.343Z,100232.41
2023-10-03T04:43:17.074Z,100236.44
2023-10-03T04:45:46.414Z,100239.78
2023-10-03T04:48:15.238Z,100239.97
2023-10-03T04:50:44.054Z,100234.81
2023-10-03T04:53:15.865Z,100232.84
2023-10-03T04:55:45.932Z,100234.22
2023-10-03T04:58:16.962Z,100236.81
2023-10-03T05:00:48.950Z,100233.81
2023-10-03T05:03:20.937Z,100236.66
2023-10-03T05:05:51.275Z,100235.97
2023-10-03T05:08:20.422Z,100235.12
2023-10-03T05:10:49.305Z,100226.34
2023-10-03T05:13:20.947Z,100230.47
2023-10-03T05:15:49.880Z,100227.75
2023-10-03T05:18:18.698Z,100228.50
2023-10-03T05:20:47.517Z,100234.41
2023-10-03T05:23:16.935Z,100233.78
2023-10-03T05:25:45.630Z,100237.63
2023-10-03T05:28:14.426Z,100237.81
2023-10-03T05:30:44.798Z,100246.84
2023-10-03T05:33:13.662Z,100237.06
2023-10-03T05:35:42.541Z,100241.25
2023-10-03T05:38:11.614Z,100244.41
2023-10-03T05:40:41.059Z,100243.56
2023-10-03T05:43:10.151Z,100241.59
2023-10-03T05:45:39.105Z,100242.78
2023-10-03T05:48:09.642Z,100247.59
2023-10-03T05:50:38.580Z,100236.97
2023-10-03T05:53:08.482Z,100244.63
2023-10-03T05:55:37.953Z,100246.59
2023-10-03T05:58:08.753Z,100253.19
2023-10-03T06:00:37.580Z,100253.09
2023-10-03T06:03:06.774Z,100254.03
2023-10-03T06:05:37.311Z,100258.13
2023-10-03T06:08:07.062Z,100243.13
2023-10-03T06:10:35.788Z,100252.59
2023-10-03T06:13:06.987Z,100258.09
2023-10-03T06:15:37.419Z,100257.37
2023-10-03T06:18:06.620Z,100256.22
2023-10-03T06:20:35.968Z,100260.84
2023-10-03T06:23:06.454Z,100261.06
2023-10-03T06:25:35.155Z,100262.16
2023-10-03T06:28:03.951Z,100260.84
2023-10-03T06:30:38.452Z,100262.78
2023-10-03T06:33:08.678Z,100257.87
2023-10-03T06:35:39.975Z,100259.94
2023-10-03T06:38:10.054Z,100262.16
2023-10-03T06:40:39.119Z,100263.97
2023-10-03T06:43:07.917Z,100264.56
2023-10-03T06:45:36.775Z,100262.72
2023-10-03T06:48:07.196Z,100255.62
2023-10-03T06:50:35.961Z,100260.72
2023-10-03T06:53:06.605Z,100262.78
2023-10-03T06:55:37.615Z,100260.03
2023-10-03T06:58:06.598Z,100264.47
2023-10-03T07:00:35.306Z,100267.75
2023-10-03T07:03:05.025Z,100254.97
2023-10-03T07:05:34.868Z,100261.16
2023-10-03T07:08:05.025Z,100256.75
2023-10-03T07:10:34.235Z,100255.72
2023-10-03T07:13:05.736Z,100263.63
2023-10-03T07:15:34.724Z,100268.00
2023-10-03T07:18:04.969Z,100269.69
2023-10-03T07:20:38.032Z,100270.31
2023-10-03T07:23:06.781Z,100266.03
2023-10-03T07:25:35.741Z,100267.16
2023-10-03T07:28:06.484Z,100268.75
2023-10-03T07:30:35.917Z,100270.78
2023-10-03T07:33:06.497Z,100275.25
2023-10-03T07:35:38.753Z,100271.31
2023-10-03T07:38:07.869Z,100273.63
2023-10-03T07:40:36.846Z,100272.41
2023-10-03T07:43:10.443Z,100272.66
2023-10-03T07:45:39.462Z,100270.50
2023-10-03T07:48:08.604Z,100268.31
2023-10-03T07:50:38.706Z,100269.38
2023-10-03T07:53:12.433Z,100269.75
2023-10-03T07:55:42.334Z,100275.31
2023-10-03T07:58:15.564Z,100272.03
2023-10-03T08:00:45.943Z,100265.44
2023-10-03T08:03:15.386Z,100272.78
2023-10-03T08:05:44.490Z,100271.09
2023-10-03T08:08:13.266Z,100277.75
2023-10-03T08:10:47.802Z,100272.56
2023-10-03T08:13:20.294Z,100273.06
2023-10-03T08:15:49.284Z,100267.81
2023-10-03T08:18:20.043Z,100266.50
2023-10-03T08:20:54.902Z,100273.41
2023-10-03T08:23:24.178Z,100269.75
2023-10-03T08:25:57.760Z,100258.72
2023-10-03T08:28:29.744Z,100259.19
2023-10-03T08:31:07.091Z,100252.62
2023-10-03T08:33:37.682Z,100261.84
2023-10-03T08:36:15.794Z,100253.87
2023-10-03T08:38:45.631Z,100253.87
2023-10-03T08:41:17.907Z,100257.63
2023-10-03T08:43:56.997Z,100252.44
2023-10-03T08:46:27.088Z,100243.19
2023-10-03T08:49:01.978Z,100238.59
2023-10-03T08:51:34.030Z,100252.88
2023-10-03T08:54:10.471Z,100244.28
2023-10-03T08:56:41.349Z,100245.13
2023-10-03T08:59:16.928Z,100241.25
2023-10-03T09:01:47.808Z,100241.13
2023-10-03T09:04:18.720Z,100234.75
2023-10-03T09:06:48.255Z,100232.25
2023-10-03T09:09:17.969Z,100234.53
2023-10-03T09:11:52.407Z,100221.56
2023-10-03T09:14:22.992Z,100224.28
2023-10-03T09:16:54.019Z,100235.69
2023-10-03T09:19:25.815Z,100225.81
2023-10-03T09:21:55.140Z,100222.56
2023-10-03T09:24:24.769Z,100220.47
2023-10-03T09:26:56.242Z,100216.44
2023-10-03T09:29:34.004Z,100209.13
2023-10-03T09:32:09.346Z,100203.00
2023-10-03T09:34:41.956Z,100204.50
2023-10-03T09:37:11.201Z,100206.22
2023-10-03T09:39:50.764Z,100201.72
2023-10-03T09:42:24.775Z,100196.09
2023-10-03T09:44:59.398Z,100193.78
2023-10-03T09:47:33.519Z,100190.41
2023-10-03T09:50:07.672Z,100198.50
2023-10-03T09:52:39.281Z,100192.72
2023-10-03T09:55:22.924Z,100199.59
2023-10-03T09:57:56.089Z,100191.25
2023-10-03T10:00:40.487Z,100193.28
2023-10-03T10:03:12.689Z,100191.84
2023-10-03T10:05:47.588Z,100187.44
2023-10-03T10:08:23.602Z,100182.66
2023-10-03T10:11:08.625Z,100181.69
2023-10-03T10:13:38.617Z,100170.50
2023-10-03T10:16:16.831Z,100170.84
2023-10-03T10:19:01.627Z,100163.91
2023-10-03T10:21:33.125Z,100162.84
2023-10-03T10:24:29.794Z,100160.69
2023-10-03T10:27:01.242Z,100165.31
2023-10-03T10:29:35.683Z,100156.22
2023-10-03T10:32:20.223Z,100161.94
2023-10-03T10:34:48.352Z,100160.19
2023-10-03T10:37:23.519Z,100155.63
2023-10-03T10:40:18.770Z,100154.81
2023-10-03T10:42:58.321Z,100150.81
2023-10-03T10:45:26.790Z,100151.56
2023-10-03T10:47:57.995Z,100148.41
2023-10-03T10:50:28.802Z,100148.53
2023-10-03T10:52:59.181Z,100140.50
2023-10-03T10:55:28.381Z,100141.94
2023-10-03T10:58:09.353Z,100141.34
2023-10-03T11:00:38.997Z,100137.75
2023-10-03T11:03:09.684Z,100128.78
2023-10-03T11:05:47.146Z,100129.84
2023-10-03T11:08:16.107Z,100129.38
2023-10-03T11:10:53.711Z,100125.28
2023-10-03T11:13:23.167Z,100113.34
2023-10-03T11:15:52.500Z,100125.28
2023-10-03T11:18:29.896Z,100116.00
2023-10-03T11:20:59.472Z,100115.47
2023-10-03T11:23:28.284Z,100117.38
2023-10-03T11:25:57.978Z,100106.88
2023-10-03T11:28:29.761Z,100107.63
2023-10-03T11:31:05.940Z,100104.97
2023-10-03T11:33:45.996Z,100095.31
2023-10-03T11:36:16.692Z,100100.81
2023-10-03T11:38:46.314Z,100089.03
2023-10-03T11:41:15.253Z,100092.97
2023-10-03T11:43:47.445Z,100083.19
2023-10-03T11:46:17.212Z,100089.66
2023-10-03T11:48:47.901Z,100091.78
2023-10-03T11:51:16.754Z,100075.41
2023-10-03T11:53:46.935Z,100074.56
2023-10-03T11:56:15.648Z,100069.91
2023-10-03T11:58:44.535Z,100063.06
2023-10-03T12:01:13.418Z,100061.59
2023-10-03T12:03:42.567Z,100060.13
2023-10-03T12:06:12.728Z,100058.06
2023-10-03T12:08:43.342Z,100050.59
2023-10-03T12:11:15.932Z,100051.56
2023-10-03T12:13:44.778Z,100048.97
2023-10-03T12:16:13.761Z,100046.69
2023-10-03T12:18:42.425Z,100053.03
2023-10-03T12:21:12.708Z,100043.22
2023-10-03T12:23:42.204Z,100036.19
2023-10-03T12:26:24.508Z,100033.25
2023-10-03T12:29:00.001Z,100034.00
2023-10-03T12:31:29.205Z,100032.34
2023-10-03T12:33:59.172Z,100033.31
2023-10-03T12:36:30.990Z,100031.03
2023-10-03T12:39:00.945Z,100025.84
2023-10-03T12:41:31.376Z,100020.75
2023-10-03T12:44:00.335Z,100017.81
2023-10-03T12:46:29.047Z,100013.78
2023-10-03T12:48:57.710Z,100013.13
2023-10-03T12:51:27.425Z,100008.84
2023-10-03T12:53:58.048Z,99999.81
2023-10-03T12:56:28.481Z,100006.56
2023-10-03T12:58:58.804Z,100003.28
2023-10-03T13:01:27.990Z,99994.16
2023-10-03T13:03:57.035Z,99993.84
2023-10-03T13:06:26.844Z,99989.84
2023-10-03T13:08:57.134Z,99984.28
2023-10-03T13:11:25.850Z,99990.91
2023-10-03T13:13:55.853Z,99989.72
2023-10-03T13:16:25.867Z,99989.03
2023-10-03T13:18:54.895Z,99977.84
2023-10-03T13:21:24.550Z,99972.09
2023-10-03T13:23:53.252Z,99971.25
2023-10-03T13:26:23.585Z,99964.72
2023-10-03T13:28:53.306Z,99968.22
2023-10-03T13:31:22.624Z,99970.63
2023-10-03T13:33:51.961Z,99961.19
2023-10-03T13:36:21.730Z,99964.44
2023-10-03T13:38:51.894Z,99951.72
2023-10-03T13:41:20.842Z,99950.75
2023-10-03T13:43:51.039Z,99950.13
2023-10-03T13:46:20.525Z,99945.66
2023-10-03T13:48:52.298Z,99941.94
2023-10-03T13:51:21.852Z,99941.47
2023-10-03T13:53:51.274Z,99947.25
2023-10-03T13:56:20.221Z,99949.66
2023-10-03T13:58:51.162Z,99951.59
2023-10-03T14:01:20.239Z,99945.78
2023-10-03T14:03:51.972Z,99937.25
2023-10-03T14:06:22.087Z,99948.91
2023-10-03T14:08:51.215Z,99945.03
2023-10-03T14:11:23.373Z,99943.34
2023-10-03T14:13:54.836Z,99946.03
2023-10-03T14:16:24.061Z,99940.69
2023-10-03T14:18:53.482Z,99941.81
2023-10-03T14:21:31.924Z,99937.59
2023-10-03T14:24:05.155Z,99928.03
2023-10-03T14:26:33.803Z,99928.22
2023-10-03T14:29:05.459Z,99922.53
2023-10-03T14:31:34.470Z,99920.97
2023-10-03T14:34:03.232Z,99919.25
2023-10-03T14:36:33.085Z,99915.47
2023-10-03T14:39:02.268Z,99906.53
2023-10-03T14:41:31.507Z,99908.44
2023-10-03T14:44:01.017Z,99906.50
2023-10-03T14:46:31.391Z,99902.66
2023-10-03T14:49:00.207Z,99899.38
2023-10-03T14:51:29.025Z,99913.53
2023-10-03T14:53:58.097Z,99904.38
2023-10-03T14:56:26.731Z,99902.44
2023-10-03T14:58:55.363Z,99907.44
2023-10-03T15:01:24.644Z,99912.09
2023-10-03T15:03:56.572Z,99912.25
2023-10-03T15:06:25.655Z,99911.34
2023-10-03T15:08:54.900Z,99914.66
2023-10-03T15:11:23.614Z,99910.94
2023-10-03T15:13:53.020Z,99903.72
2023-10-03T15:16:21.795Z,99901.94
2023-10-03T15:18:50.482Z,99894.53
2023-10-03T15:21:20.950Z,99898.62
2023-10-03T15:23:50.480Z,99900.50
2023-10-03T15:26:19.424Z,99895.25
2023-10-03T15:28:49.706Z,99895.69
2023-10-03T15:31:23.940Z,99892.50
2023-10-03T15:33:53.728Z,99889.31
2023-10-03T15:36:24.341Z,99885.72
2023-10-03T15:38:53.453Z,99889.25
2023-10-03T15:41:22.243Z,99883.94
2023-10-03T15:43:50.919Z,99888.09
2023-10-03T15:46:20.094Z,99890.31
2023-10-03T15:48:48.869Z,99881.00
2023-10-03T15:51:17.952Z,99885.91
2023-10-03T15:53:48.634Z,99878.63
2023-10-03T15:56:18.616Z,99885.59
2023-10-03T15:58:47.810Z,99892.66
2023-10-03T16:01:17.372Z,99885.94
2023-10-03T16:03:48.167Z,99889.88
2023-10-03T16:06:18.334Z,99893.31
2023-10-03T16:08:51.011Z,99895.34
2023-10-03T16:11:20.455Z,99894.37
2023-10-03T16:13:50.202Z,99892.09
2023-10-03T16:16:19.598Z,99890.91
2023-10-03T16:18:48.830Z,99890.56
2023-10-03T16:21:19.071Z,99889.88
2023-10-03T16:23:50.070Z,99888.31
2023-10-03T16:26:20.089Z,99888.69
2023-10-03T16:28:51.233Z,99888.22
2023-10-03T16:31:21.425Z,99881.97
2023-10-03T16:33:51.662Z,99887.66
2023-10-03T16:36:21.731Z,99887.50
2023-10-03T16:38:52.717Z,99889.59
2023-10-03T16:41:23.402Z,99889.16
2023-10-03T16:43:52.365Z,99882.53
2023-10-03T16:46:23.488Z,99885.97
2023-10-03T16:48:53.434Z,99891.25
2023-10-03T16:51:24.782Z,99887.75
2023-10-03T16:53:56.874Z,99878.66
2023-10-03T16:56:26.977Z,99885.81
2023-10-03T16:58:56.786Z,99884.13
2023-10-03T17:01:26.792Z,99878.56
2023-10-03T17:03:59.148Z,99882.91
2023-10-03T17:06:29.799Z,99886.84
2023-10-03T17:09:02.903Z,99889.59
2023-10-03T17:11:33.443Z,99882.53
2023-10-03T17:14:03.895Z,99879.53
2023-10-03T17:16:34.950Z,99876.22
2023-10-03T17:19:09.476Z,99876.19
2023-10-03T17:21:39.222Z,99874.97
2023-10-03T17:24:13.691Z,99880.63
2023-10-03T17:26:48.178Z,99880.72
2023-10-03T17:29:23.192Z,99882.78
2023-10-03T17:31:55.813Z,99874.19
2023-10-03T17:34:27.568Z,99871.41
2023-10-03T17:36:56.823Z,99879.69
2023-10-03T17:39:30.043Z,99877.00
2023-10-03T17:42:00.421Z,99875.38
2023-10-03T17:44:32.610Z,99874.66
2023-10-03T17:47:03.238Z,99871.81
2023-10-03T17:49:36.982Z,99876.69
2023-10-03T17:52:08.918Z,99878.28
2023-10-03T17:54:41.322Z,99880.53
2023-10-03T17:57:11.919Z,99877.06
2023-10-03T18:00:00.347Z,99880.47
2023-10-03T18:02:37.637Z,99878.16
2023-10-03T18:05:11.201Z,99877.44
2023-10-03T18:07:46.005Z,99881.69
2023-10-03T18:10:24.378Z,99877.88
2023-10-03T18:13:01.108Z,99880.69
2023-10-03T18:15:31.171Z,99875.41
2023-10-03T18:18:02.288Z,99884.78
2023-10-03T18:20:39.819Z,99886.56
2023-10-03T18:23:10.609Z,99882.13
2023-10-03T18:25:43.966Z,99867.28
2023-10-03T18:28:16.411Z,99880.06
2023-10-03T18:30:48.355Z,99885.19
2023-10-03T18:33:20.266Z,99886.06
2023-10-03T18:35:51.450Z,99877.84
2023-10-03T18:38:29.339Z,99873.34
2023-10-03T18:41:05.390Z,99868.16
2023-10-03T18:43:38.482Z,99874.41
2023-10-03T18:46:11.702Z,99870.56
2023-10-03T18:48:42.623Z,99874.66
2023-10-03T18:51:14.081Z,99881.38
2023-10-03T18:53:48.477Z,99879.03
2023-10-03T18:56:29.023Z,99882.66
2023-10-03T18:59:04.112Z,99884.78
2023-10-03T19:01:49.522Z,99886.75
2023-10-03T19:04:28.958Z,99883.28
2023-10-03T19:07:02.085Z,99893.66
2023-10-03T19:09:38.346Z,99894.25
2023-10-03T19:12:14.896Z,99896.41
2023-10-03T19:14:50.451Z,99893.47
2023-10-03T19:17:21.447Z,99890.19
2023-10-03T19:19:58.293Z,99886.19
2023-10-03T19:22:30.436Z,99891.81
2023-10-03T19:25:06.571Z,99895.41
2023-10-03T19:27:42.543Z,99890.25
2023-10-03T19:30:20.168Z,99888.50
2023-10-03T19:32:51.583Z,99889.28
2023-10-03T19:35:23.122Z,99884.00
2023-10-03T19:37:57.426Z,99890.97
2023-10-03T19:40:31.435Z,99895.88
2023-10-03T19:43:09.037Z,99893.69
2023-10-03T19:45:44.351Z,99894.53
2023-10-03T19:48:22.981Z,99891.97
2023-10-03T19:51:07.733Z,99892.28
2023-10-03T19:53:39.637Z,99893.66
2023-10-03T19:56:17.736Z,99885.66
2023-10-03T19:58:53.686Z,99886.94
2023-10-03T20:01:25.924Z,99873.63
2023-10-03T20:03:58.852Z,99871.50
2023-10-03T20:06:33.216Z,99871.84
2023-10-03T20:09:09.441Z,99868.31
2023-10-03T20:11:41.196Z,99869.28
2023-10-03T20:14:16.591Z,99858.78
2023-10-03T20:16:47.763Z,99864.31
2023-10-03T20:19:21.595Z,99877.50
2023-10-03T20:21:56.059Z,99877.59
2023-10-03T20:24:27.766Z,99877.38
2023-10-03T20:26:57.839Z,99868.91
2023-10-03T20:29:30.778Z,99874.19
2023-10-03T20:32:01.798Z,99873.72
2023-10-03T20:34:33.155Z,99872.22
2023-10-03T20:37:04.250Z,99877.81
2023-10-03T20:39:38.724Z,99875.34
2023-10-03T20:42:08.110Z,99870.09
2023-10-03T20:44:39.739Z,99875.66
2023-10-03T20:47:09.610Z,99873.03
2023-10-03T20:49:43.009Z,99875.81
2023-10-03T20:52:12.176Z,99867.75
2023-10-03T20:54:41.179Z,99866.78
2023-10-03T20:57:09.950Z,99867.28
2023-10-03T20:59:40.124Z,99875.81
2023-10-03T21:02:10.004Z,99885.00
2023-10-03T21:04:38.915Z,99885.00
2023-10-03T21:07:08.040Z,99885.53
2023-10-03T21:09:37.122Z,99887.41
2023-10-03T21:12:07.131Z,99884.94
2023-10-03T21:14:35.932Z,99878.47
2023-10-03T21:17:07.980Z,99875.12
2023-10-03T21:19:38.339Z,99869.16
2023-10-03T21:22:07.999Z,99871.50
2023-10-03T21:24:36.673Z,99875.72
2023-10-03T21:27:05.409Z,99876.81
2023-10-03T21:29:34.705Z,99862.66
2023-10-03T21:32:05.360Z,99875.78
2023-10-03T21:34:36.914Z,99872.81
2023-10-03T21:37:07.470Z,99878.25
2023-10-03T21:39:36.924Z,99882.25
2023-10-03T21:42:06.078Z,99886.13
2023-10-03T21:44:35.185Z,99888.22
2023-10-03T21:47:04.417Z,99903.34
2023-10-03T21:49:35.905Z,99902.22
2023-10-03T21:52:06.372Z,99909.81
2023-10-03T21:54:35.087Z,99901.47
2023-10-03T21:57:03.946Z,99908.16
2023-10-03T21:59:32.956Z,99919.22
2023-10-03T22:02:01.652Z,99915.56
2023-10-03T22:04:30.658Z,99915.81
2023-10-03T22:06:59.361Z,99918.31
2023-10-03T22:09:29.469Z,99905.25
2023-10-03T22:11:58.567Z,99909.03
2023-10-03T22:14:27.928Z,99913.94
2023-10-03T22:16:56.677Z,99920.62
2023-10-03T22:19:25.630Z,99917.91
2023-10-03T22:21:54.558Z,99919.53
2023-10-03T22:24:23.460Z,99923.66
2023-10-03T22:26:54.021Z,99924.50
2023-10-03T22:29:22.672Z,99919.75
2023-10-03T22:31:51.577Z,99920.81
2023-10-03T22:34:21.047Z,99917.66
2023-10-03T22:36:49.685Z,99916.75
2023-10-03T22:39:18.385Z,99920.53
2023-10-03T22:41:47.386Z,99922.94
2023-10-03T22:44:17.445Z,99910.25
2023-10-03T22:46:46.087Z,99917.81
2023-10-03T22:49:15.088Z,99917.16
2023-10-03T22:51:43.858Z,99903.41
2023-10-03T22:54:12.615Z,99907.63
2023-10-03T22:56:41.567Z,99909.37
2023-10-03T22:59:11.371Z,99905.06
2023-10-03T23:01:41.963Z,99908.34
2023-10-03T23:04:10.982Z,99908.84
2023-10-03T23:06:43.130Z,99907.41
2023-10-03T23:09:12.179Z,99918.59
2023-10-03T23:11:40.840Z,99916.91
2023-10-03T23:14:09.512Z,99924.69
2023-10-03T23:16:38.473Z,99926.22
2023-10-03T23:19:08.723Z,99917.06
2023-10-03T23:21:37.347Z,99930.91
2023-10-03T23:24:11.093Z,99928.72
2023-10-03T23:26:39.847Z,99914.34
2023-10-03T23:29:08.767Z,99914.50
2023-10-03T23:31:37.894Z,99929.78
2023-10-03T23:34:08.223Z,99927.16
2023-10-03T23:36:37.233Z,99931.69
2023-10-03T23:39:07.618Z,99949.41
2023-10-03T23:41:37.104Z,99954.31
2023-10-03T23:44:07.632Z,99946.34
2023-10-03T23:46:36.370Z,99936.03
2023-10-03T23:49:06.080Z,99948.75
2023-10-03T23:51:36.685Z,99939.91
2023-10-03T23:54:11.148Z,99950.69
2023-10-03T23:56:44.462Z,99951.41
2023-10-03T23:59:13.144Z,99945.31
